createdAt,value
2019-01-19T19:16:50.302Z,22.61
2019-01-19T19:19:22.555Z,22.60
2019-01-19T19:21:54.820Z,22.73
2019-01-19T19:24:27.049Z,22.73
2019-01-19T19:26:59.426Z,23.03
2019-01-19T19:29:31.860Z,22.95
2019-01-19T19:32:04.092Z,22.83
2019-01-19T19:34:37.310Z,22.80
2019-01-19T19:37:09.402Z,22.89
2019-01-19T19:39:41.643Z,22.97
2019-01-19T19:42:13.830Z,22.97
2019-01-19T19:44:47.309Z,23.00
2019-01-19T19:47:19.412Z,23.01
2019-01-19T19:49:52.283Z,23.14
2019-01-19T19:52:19.868Z,22.97
2019-01-19T19:54:49.463Z,23.07
2019-01-19T19:57:15.890Z,23.13
2019-01-19T19:59:42.246Z,23.14
2019-01-19T20:02:08.791Z,23.14
2019-01-19T20:04:35.205Z,23.09
2019-01-19T20:07:05.343Z,23.08
2019-01-19T20:09:32.788Z,23.05
2019-01-19T20:12:01.290Z,23.00
2019-01-19T20:14:27.659Z,22.74
2019-01-19T20:16:54.374Z,22.60
2019-01-19T20:19:21.169Z,22.51
2019-01-19T20:21:48.286Z,22.46
2019-01-19T20:24:14.685Z,22.39
2019-01-19T20:26:41.064Z,22.32
2019-01-19T20:29:07.964Z,22.22
2019-01-19T20:31:35.761Z,22.19
2019-01-19T20:34:02.165Z,22.13
2019-01-19T20:36:28.569Z,22.10
2019-01-19T20:38:55.011Z,21.97
2019-01-19T20:41:21.600Z,21.86
2019-01-19T20:43:48.285Z,21.80
2019-01-19T20:46:14.810Z,21.71
2019-01-19T20:48:43.118Z,21.66
2019-01-19T20:51:09.564Z,21.59
2019-01-19T20:53:36.022Z,21.57
2019-01-19T20:56:03.484Z,21.51
2019-01-19T20:58:29.874Z,21.45
2019-01-19T21:00:56.507Z,21.36
2019-01-19T21:03:22.938Z,21.29
2019-01-19T21:05:50.878Z,21.21
2019-01-19T21:08:17.328Z,21.17
2019-01-19T21:10:44.614Z,21.09
2019-01-19T21:13:11.021Z,21.04
2019-01-19T21:15:37.548Z,20.95
2019-01-19T21:18:04.651Z,20.92
2019-01-19T21:20:31.250Z,20.95
2019-01-19T21:22:57.707Z,20.97
2019-01-19T21:25:26.472Z,20.97
2019-01-19T21:27:53.135Z,20.99
2019-01-19T21:30:19.690Z,21.06
2019-01-19T21:32:46.486Z,21.08
2019-01-19T21:35:13.060Z,21.11
2019-01-19T21:37:39.447Z,21.17
2019-01-19T21:40:10.203Z,21.16
2019-01-19T21:42:36.933Z,21.16
2019-01-19T21:45:09.751Z,21.14
2019-01-19T21:47:36.340Z,21.08
2019-01-19T21:50:05.814Z,21.02
2019-01-19T21:52:32.372Z,20.98
2019-01-19T21:55:00.803Z,20.94
2019-01-19T21:57:27.330Z,20.90
2019-01-19T21:59:53.985Z,20.89
2019-01-19T22:02:20.680Z,20.87
2019-01-19T22:04:47.665Z,20.82
2019-01-19T22:07:15.673Z,20.79
2019-01-19T22:09:42.171Z,20.75
2019-01-19T22:12:09.776Z,20.68
2019-01-19T22:14:36.274Z,20.60
2019-01-19T22:17:02.880Z,20.56
2019-01-19T22:19:29.455Z,20.52
2019-01-19T22:21:55.949Z,20.45
2019-01-19T22:24:23.004Z,20.43
2019-01-19T22:26:53.426Z,20.38
2019-01-19T22:29:20.072Z,20.40
2019-01-19T22:31:46.763Z,20.65
2019-01-19T22:34:13.189Z,20.80
2019-01-19T22:36:39.813Z,20.82
2019-01-19T22:39:06.748Z,20.79
2019-01-19T22:41:33.170Z,20.80
2019-01-19T22:43:59.685Z,20.80
2019-01-19T22:46:26.143Z,20.79
2019-01-19T22:48:52.615Z,20.80
2019-01-19T22:51:19.111Z,20.77
2019-01-19T22:53:46.047Z,20.80
2019-01-19T22:56:12.446Z,20.81
2019-01-19T22:58:38.876Z,20.86
2019-01-19T23:01:11.039Z,20.83
2019-01-19T23:03:37.592Z,20.73
2019-01-19T23:06:04.168Z,20.87
2019-01-19T23:08:33.592Z,20.80
2019-01-19T23:11:01.230Z,20.68
2019-01-19T23:13:28.100Z,20.58
2019-01-19T23:15:54.523Z,20.55
2019-01-19T23:18:20.943Z,20.62
2019-01-19T23:20:47.796Z,20.75
2019-01-19T23:23:14.330Z,20.82
2019-01-19T23:25:41.510Z,20.86
2019-01-19T23:28:08.026Z,20.92
2019-01-19T23:30:34.672Z,20.97
2019-01-19T23:33:01.235Z,20.90
2019-01-19T23:35:27.819Z,20.94
2019-01-19T23:37:54.226Z,20.98
2019-01-19T23:40:20.602Z,21.05
2019-01-19T23:42:47.554Z,21.11
2019-01-19T23:45:14.068Z,21.11
2019-01-19T23:47:40.633Z,21.10
2019-01-19T23:50:12.054Z,21.11
2019-01-19T23:52:38.476Z,21.15
2019-01-19T23:55:05.643Z,21.16
2019-01-19T23:57:32.177Z,21.26
2019-01-19T23:59:58.703Z,21.30
